sensor_id;sensor_type;location;lat;lon;timestamp;pressure;altitude;pressure_sealevel;temperature;humidity
35331;BME280;21441;52.190;20.910;2023-04-08T00:01:38;100682.94;;;5.42;100.00
35331;BME280;21441;52.190;20.910;2023-04-08T00:04:05;100688.06;;;5.55;100.00
35331;BME280;21441;52.190;20.910;2023-04-08T00:06:34;100699.13;;;5.60;100.00
35331;BME280;21441;52.190;20.910;2023-04-08T00:09:01;100689.63;;;5.57;100.00
35331;BME280;21441;52.190;20.910;2023-04-08T00:11:31;100693.50;;;5.53;100.00
35331;BME280;21441;52.190;20.910;2023-04-08T00:13:59;100706.09;;;5.61;100.00
35331;BME280;21441;52.190;20.910;2023-04-08T00:16:26;100698.25;;;5.71;100.00
35331;BME280;21441;52.190;20.910;2023-04-08T00:18:53;100697.84;;;5.54;100.00
35331;BME280;21441;52.190;20.910;2023-04-08T00:21:20;100692.88;;;5.29;100.00
35331;BME280;21441;52.190;20.910;2023-04-08T00:23:48;100690.75;;;5.23;100.00
35331;BME280;21441;52.190;20.910;2023-04-08T00:26:15;100703.84;;;5.24;100.00
35331;BME280;21441;52.190;20.910;2023-04-08T00:28:43;100696.19;;;5.10;100.00
35331;BME280;21441;52.190;20.910;2023-04-08T00:31:11;100700.25;;;5.25;100.00
35331;BME280;21441;52.190;20.910;2023-04-08T00:33:38;100696.88;;;5.23;100.00
35331;BME280;21441;52.190;20.910;2023-04-08T00:36:05;100700.88;;;5.06;100.00
35331;BME280;21441;52.190;20.910;2023-04-08T00:38:32;100707.66;;;4.88;100.00
35331;BME280;21441;52.190;20.910;2023-04-08T00:40:59;100712.91;;;5.10;100.00
35331;BME280;21441;52.190;20.910;2023-04-08T00:43:27;100708.31;;;5.12;100.00
35331;BME280;21441;52.190;20.910;2023-04-08T00:45:55;100715.16;;;5.15;100.00
35331;BME280;21441;52.190;20.910;2023-04-08T00:48:22;100708.22;;;5.14;100.00
35331;BME280;21441;52.190;20.910;2023-04-08T00:50:49;100708.38;;;4.90;100.00
35331;BME280;21441;52.190;20.910;2023-04-08T00:53:17;100717.25;;;4.89;100.00
35331;BME280;21441;52.190;20.910;2023-04-08T00:55:45;100714.28;;;4.82;100.00
35331;BME280;21441;52.190;20.910;2023-04-08T00:58:13;100720.63;;;4.91;100.00
35331;BME280;21441;52.190;20.910;2023-04-08T01:00:59;100722.66;;;4.99;100.00
35331;BME280;21441;52.190;20.910;2023-04-08T01:03:39;100728.19;;;4.95;100.00
35331;BME280;21441;52.190;20.910;2023-04-08T01:06:12;100724.44;;;5.09;100.00
35331;BME280;21441;52.190;20.910;2023-04-08T01:08:42;100731.16;;;5.13;100.00
35331;BME280;21441;52.190;20.910;2023-04-08T01:11:11;100724.31;;;5.11;100.00
35331;BME280;21441;52.190;20.910;2023-04-08T01:13:41;100729.75;;;4.98;100.00
35331;BME280;21441;52.190;20.910;2023-04-08T01:16:13;100718.81;;;4.91;100.00
35331;BME280;21441;52.190;20.910;2023-04-08T01:18:42;100722.78;;;4.97;100.00
35331;BME280;21441;52.190;20.910;2023-04-08T01:21:11;100720.50;;;4.92;100.00
35331;BME280;21441;52.190;20.910;2023-04-08T01:23:43;100721.09;;;4.96;100.00
35331;BME280;21441;52.190;20.910;2023-04-08T01:26:20;100729.25;;;5.04;100.00
35331;BME280;21441;52.190;20.910;2023-04-08T01:28:49;100720.03;;;4.99;100.00
35331;BME280;21441;52.190;20.910;2023-04-08T01:31:18;100728.94;;;4.75;100.00
35331;BME280;21441;52.190;20.910;2023-04-08T01:33:46;100733.88;;;4.68;100.00
35331;BME280;21441;52.190;20.910;2023-04-08T01:36:15;100732.06;;;4.69;100.00
35331;BME280;21441;52.190;20.910;2023-04-08T01:38:45;100726.44;;;4.62;100.00
35331;BME280;21441;52.190;20.910;2023-04-08T01:41:15;100732.69;;;4.61;100.00
35331;BME280;21441;52.190;20.910;2023-04-08T01:43:43;100725.09;;;4.57;100.00
35331;BME280;21441;52.190;20.910;2023-04-08T01:46:11;100727.53;;;4.48;100.00
35331;BME280;21441;52.190;20.910;2023-04-08T01:48:39;100736.50;;;4.34;100.00
35331;BME280;21441;52.190;20.910;2023-04-08T01:51:08;100738.19;;;4.36;100.00
35331;BME280;21441;52.190;20.910;2023-04-08T01:53:35;100733.72;;;4.25;100.00
35331;BME280;21441;52.190;20.910;2023-04-08T01:56:05;100736.63;;;4.33;100.00
35331;BME280;21441;52.190;20.910;2023-04-08T01:58:36;100735.31;;;4.50;100.00
35331;BME280;21441;52.190;20.910;2023-04-08T02:01:05;100745.16;;;4.48;100.00
35331;BME280;21441;52.190;20.910;2023-04-08T02:03:36;100743.13;;;4.40;100.00
35331;BME280;21441;52.190;20.910;2023-04-08T02:06:04;100745.16;;;4.37;100.00
35331;BME280;21441;52.190;20.910;2023-04-08T02:08:33;100754.63;;;4.28;100.00
35331;BME280;21441;52.190;20.910;2023-04-08T02:11:00;100756.44;;;4.27;100.00
35331;BME280;21441;52.190;20.910;2023-04-08T02:13:30;100746.47;;;4.20;100.00
35331;BME280;21441;52.190;20.910;2023-04-08T02:16:03;100755.31;;;4.19;100.00
35331;BME280;21441;52.190;20.910;2023-04-08T02:18:33;100754.75;;;4.26;100.00
35331;BME280;21441;52.190;20.910;2023-04-08T02:21:07;100756.41;;;4.16;100.00
35331;BME280;21441;52.190;20.910;2023-04-08T02:23:37;100766.50;;;4.11;100.00
35331;BME280;21441;52.190;20.910;2023-04-08T02:26:07;100755.19;;;3.98;100.00
35331;BME280;21441;52.190;20.910;2023-04-08T02:28:36;100761.44;;;4.08;100.00
35331;BME280;21441;52.190;20.910;2023-04-08T02:31:08;100759.13;;;4.03;100.00
35331;BME280;21441;52.190;20.910;2023-04-08T02:33:38;100766.72;;;4.08;100.00
35331;BME280;21441;52.190;20.910;2023-04-08T02:36:07;100771.25;;;4.06;100.00
35331;BME280;21441;52.190;20.910;2023-04-08T02:38:34;100768.13;;;4.01;100.00
35331;BME280;21441;52.190;20.910;2023-04-08T02:41:01;100773.22;;;4.15;100.00
35331;BME280;21441;52.190;20.910;2023-04-08T02:43:28;100772.97;;;4.07;100.00
35331;BME280;21441;52.190;20.910;2023-04-08T02:45:57;100776.44;;;4.07;100.00
35331;BME280;21441;52.190;20.910;2023-04-08T02:48:26;100779.34;;;4.16;100.00
35331;BME280;21441;52.190;20.910;2023-04-08T02:50:53;100783.16;;;4.11;100.00
35331;BME280;21441;52.190;20.910;2023-04-08T02:53:22;100783.16;;;4.11;100.00
35331;BME280;21441;52.190;20.910;2023-04-08T02:55:49;100789.28;;;4.12;100.00
35331;BME280;21441;52.190;20.910;2023-04-08T02:58:17;100767.03;;;3.92;100.00
35331;BME280;21441;52.190;20.910;2023-04-08T03:00:44;100795.63;;;3.98;100.00
35331;BME280;21441;52.190;20.910;2023-04-08T03:03:11;100795.75;;;4.08;100.00
35331;BME280;21441;52.190;20.910;2023-04-08T03:05:39;100795.75;;;4.08;100.00
35331;BME280;21441;52.190;20.910;2023-04-08T03:08:07;100807.28;;;4.07;100.00
35331;BME280;21441;52.190;20.910;2023-04-08T03:10:33;100809.41;;;4.02;100.00
35331;BME280;21441;52.190;20.910;2023-04-08T03:13:01;100809.66;;;3.99;100.00
35331;BME280;21441;52.190;20.910;2023-04-08T03:15:28;100806.47;;;3.82;100.00
35331;BME280;21441;52.190;20.910;2023-04-08T03:17:55;100812.34;;;3.86;100.00
35331;BME280;21441;52.190;20.910;2023-04-08T03:20:22;100813.47;;;3.95;100.00
35331;BME280;21441;52.190;20.910;2023-04-08T03:22:50;100816.84;;;3.97;100.00
35331;BME280;21441;52.190;20.910;2023-04-08T03:25:17;100817.78;;;3.84;100.00
35331;BME280;21441;52.190;20.910;2023-04-08T03:27:44;100817.56;;;3.99;100.00
35331;BME280;21441;52.190;20.910;2023-04-08T03:30:11;100823.09;;;3.96;100.00
35331;BME280;21441;52.190;20.910;2023-04-08T03:32:39;100822.31;;;3.82;100.00
35331;BME280;21441;52.190;20.910;2023-04-08T03:35:06;100828.78;;;3.78;100.00
35331;BME280;21441;52.190;20.910;2023-04-08T03:37:34;100824.22;;;3.56;100.00
35331;BME280;21441;52.190;20.910;2023-04-08T03:40:02;100831.16;;;3.57;100.00
35331;BME280;21441;52.190;20.910;2023-04-08T03:42:30;100829.91;;;3.63;100.00
35331;BME280;21441;52.190;20.910;2023-04-08T03:44:57;100817.25;;;3.55;100.00
35331;BME280;21441;52.190;20.910;2023-04-08T03:47:24;100834.06;;;3.78;100.00
35331;BME280;21441;52.190;20.910;2023-04-08T03:49:52;100839.31;;;3.78;100.00
35331;BME280;21441;52.190;20.910;2023-04-08T03:52:19;100832.53;;;3.63;100.00
35331;BME280;21441;52.190;20.910;2023-04-08T03:54:46;100831.03;;;3.71;100.00
35331;BME280;21441;52.190;20.910;2023-04-08T03:57:14;100831.28;;;3.80;100.00
35331;BME280;21441;52.190;20.910;2023-04-08T03:59:41;100831.50;;;3.77;100.00
35331;BME280;21441;52.190;20.910;2023-04-08T04:02:08;100840.41;;;3.76;100.00
35331;BME280;21441;52.190;20.910;2023-04-08T04:04:35;100841.25;;;3.76;100.00
35331;BME280;21441;52.190;20.910;2023-04-08T04:07:03;100846.31;;;3.66;100.00
35331;BME280;21441;52.190;20.910;2023-04-08T04:09:29;100843.81;;;3.89;100.00
35331;BME280;21441;52.190;20.910;2023-04-08T04:11:57;100823.44;;;3.67;100.00
35331;BME280;21441;52.190;20.910;2023-04-08T04:14:25;100847.25;;;3.78;100.00
35331;BME280;21441;52.190;20.910;2023-04-08T04:16:52;100850.28;;;3.85;100.00
35331;BME280;21441;52.190;20.910;2023-04-08T04:19:19;100849.84;;;3.91;100.00
35331;BME280;21441;52.190;20.910;2023-04-08T04:21:46;100848.38;;;3.87;100.00
35331;BME280;21441;52.190;20.910;2023-04-08T04:24:13;100854.47;;;3.87;100.00
35331;BME280;21441;52.190;20.910;2023-04-08T04:26:40;100855.25;;;4.01;100.00
35331;BME280;21441;52.190;20.910;2023-04-08T04:29:07;100864.94;;;4.13;100.00
35331;BME280;21441;52.190;20.910;2023-04-08T04:31:36;100866.09;;;4.09;100.00
35331;BME280;21441;52.190;20.910;2023-04-08T04:34:03;100874.47;;;4.03;100.00
35331;BME280;21441;52.190;20.910;2023-04-08T04:36:30;100870.25;;;4.24;100.00
35331;BME280;21441;52.190;20.910;2023-04-08T04:38:57;100882.28;;;4.28;100.00
35331;BME280;21441;52.190;20.910;2023-04-08T04:41:24;100875.19;;;4.29;100.00
35331;BME280;21441;52.190;20.910;2023-04-08T04:43:51;100886.56;;;4.29;100.00
35331;BME280;21441;52.190;20.910;2023-04-08T04:46:19;100879.75;;;4.38;100.00
35331;BME280;21441;52.190;20.910;2023-04-08T04:48:47;100894.34;;;4.55;100.00
35331;BME280;21441;52.190;20.910;2023-04-08T04:51:14;100897.72;;;4.57;100.00
35331;BME280;21441;52.190;20.910;2023-04-08T04:53:41;100889.34;;;4.74;100.00
35331;BME280;21441;52.190;20.910;2023-04-08T04:56:08;100890.44;;;4.83;100.00
35331;BME280;21441;52.190;20.910;2023-04-08T04:58:35;100892.38;;;4.92;100.00
35331;BME280;21441;52.190;20.910;2023-04-08T05:01:02;100890.34;;;5.07;100.00
35331;BME280;21441;52.190;20.910;2023-04-08T05:03:30;100893.59;;;5.11;100.00
35331;BME280;21441;52.190;20.910;2023-04-08T05:05:59;100893.00;;;5.30;100.00
35331;BME280;21441;52.190;20.910;2023-04-08T05:08:26;100892.38;;;5.26;100.00
35331;BME280;21441;52.190;20.910;2023-04-08T05:10:53;100896.09;;;5.35;100.00
35331;BME280;21441;52.190;20.910;2023-04-08T05:13:21;100887.78;;;5.40;100.00
35331;BME280;21441;52.190;20.910;2023-04-08T05:15:48;100892.84;;;5.54;100.00
35331;BME280;21441;52.190;20.910;2023-04-08T05:18:15;100905.22;;;5.65;100.00
35331;BME280;21441;52.190;20.910;2023-04-08T05:20:43;100902.44;;;5.77;100.00
35331;BME280;21441;52.190;20.910;2023-04-08T05:23:11;100905.19;;;5.76;100.00
35331;BME280;21441;52.190;20.910;2023-04-08T05:25:38;100906.63;;;5.80;100.00
35331;BME280;21441;52.190;20.910;2023-04-08T05:28:05;100902.97;;;5.92;100.00
35331;BME280;21441;52.190;20.910;2023-04-08T05:30:32;100900.31;;;6.04;100.00
35331;BME280;21441;52.190;20.910;2023-04-08T05:32:59;100901.25;;;6.14;100.00
35331;BME280;21441;52.190;20.910;2023-04-08T05:35:27;100909.50;;;6.32;100.00
35331;BME280;21441;52.190;20.910;2023-04-08T05:37:54;100908.28;;;6.36;100.00
35331;BME280;21441;52.190;20.910;2023-04-08T05:40:22;100908.53;;;6.54;100.00
35331;BME280;21441;52.190;20.910;2023-04-08T05:42:49;100915.41;;;6.56;100.00
35331;BME280;21441;52.190;20.910;2023-04-08T05:45:16;100904.66;;;6.58;100.00
35331;BME280;21441;52.190;20.910;2023-04-08T05:47:43;100894.34;;;6.55;100.00
35331;BME280;21441;52.190;20.910;2023-04-08T05:50:11;100918.09;;;6.87;98.50
35331;BME280;21441;52.190;20.910;2023-04-08T05:52:41;100917.28;;;6.87;96.44
35331;BME280;21441;52.190;20.910;2023-04-08T05:55:09;100899.53;;;6.87;95.33
35331;BME280;21441;52.190;20.910;2023-04-08T05:57:38;100924.38;;;7.07;93.72
35331;BME280;21441;52.190;20.910;2023-04-08T06:00:07;100928.44;;;7.11;93.88
35331;BME280;21441;52.190;20.910;2023-04-08T06:02:34;100925.13;;;7.19;92.97
35331;BME280;21441;52.190;20.910;2023-04-08T06:05:02;100926.06;;;7.39;90.97
35331;BME280;21441;52.190;20.910;2023-04-08T06:07:29;100931.38;;;7.39;90.65
35331;BME280;21441;52.190;20.910;2023-04-08T06:09:58;100932.47;;;7.36;90.64
35331;BME280;21441;52.190;20.910;2023-04-08T06:12:25;100936.38;;;7.32;88.05
35331;BME280;21441;52.190;20.910;2023-04-08T06:14:54;100934.56;;;7.33;89.07
35331;BME280;21441;52.190;20.910;2023-04-08T06:17:21;100928.19;;;7.45;88.11
35331;BME280;21441;52.190;20.910;2023-04-08T06:19:48;100937.50;;;7.39;87.27
35331;BME280;21441;52.190;20.910;2023-04-08T06:22:15;100933.09;;;7.50;87.52
35331;BME280;21441;52.190;20.910;2023-04-08T06:24:42;100942.41;;;7.44;86.14
35331;BME280;21441;52.190;20.910;2023-04-08T06:27:09;100945.38;;;7.51;85.36
35331;BME280;21441;52.190;20.910;2023-04-08T06:29:36;100926.09;;;7.49;84.59
35331;BME280;21441;52.190;20.910;2023-04-08T06:32:05;100943.25;;;7.85;83.56
35331;BME280;21441;52.190;20.910;2023-04-08T06:34:32;100948.31;;;7.98;82.00
35331;BME280;21441;52.190;20.910;2023-04-08T06:36:59;100944.66;;;7.99;80.60
35331;BME280;21441;52.190;20.910;2023-04-08T06:39:27;100942.50;;;8.23;80.27
35331;BME280;21441;52.190;20.910;2023-04-08T06:41:53;100942.75;;;8.40;78.54
35331;BME280;21441;52.190;20.910;2023-04-08T06:44:21;100945.69;;;8.27;77.70
35331;BME280;21441;52.190;20.910;2023-04-08T06:46:47;100947.44;;;8.48;77.80
35331;BME280;21441;52.190;20.910;2023-04-08T06:49:16;100942.38;;;8.44;75.24
35331;BME280;21441;52.190;20.910;2023-04-08T06:51:43;100950.38;;;8.54;75.05
35331;BME280;21441;52.190;20.910;2023-04-08T06:54:10;100953.28;;;8.71;73.99
35331;BME280;21441;52.190;20.910;2023-04-08T06:56:37;100947.41;;;8.77;73.64
35331;BME280;21441;52.190;20.910;2023-04-08T06:59:04;100949.47;;;9.02;72.38
35331;BME280;21441;52.190;20.910;2023-04-08T07:01:31;100946.06;;;9.10;70.46
35331;BME280;21441;52.190;20.910;2023-04-08T07:03:58;100957.38;;;9.22;68.62
35331;BME280;21441;52.190;20.910;2023-04-08T07:06:28;100956.78;;;9.38;64.82
35331;BME280;21441;52.190;20.910;2023-04-08T07:08:55;100949.50;;;9.30;66.12
35331;BME280;21441;52.190;20.910;2023-04-08T07:11:22;100944.94;;;9.50;65.24
35331;BME280;21441;52.190;20.910;2023-04-08T07:13:49;100957.78;;;9.64;63.48
35331;BME280;21441;52.190;20.910;2023-04-08T07:16:17;100967.50;;;9.56;66.10
35331;BME280;21441;52.190;20.910;2023-04-08T07:18:44;100958.56;;;9.75;63.67
35331;BME280;21441;52.190;20.910;2023-04-08T07:21:12;100959.00;;;9.98;62.12
35331;BME280;21441;52.190;20.910;2023-04-08T07:23:40;100959.47;;;9.93;62.02
35331;BME280;21441;52.190;20.910;2023-04-08T07:26:07;100958.66;;;10.10;60.08
35331;BME280;21441;52.190;20.910;2023-04-08T07:28:34;100953.22;;;10.30;59.61
35331;BME280;21441;52.190;20.910;2023-04-08T07:31:09;100955.25;;;10.36;59.11
35331;BME280;21441;52.190;20.910;2023-04-08T07:33:36;100959.81;;;10.62;58.05
35331;BME280;21441;52.190;20.910;2023-04-08T07:36:03;100961.31;;;10.56;58.10
35331;BME280;21441;52.190;20.910;2023-04-08T07:38:31;100953.81;;;10.60;60.04
35331;BME280;21441;52.190;20.910;2023-04-08T07:40:59;100967.28;;;10.76;57.46
35331;BME280;21441;52.190;20.910;2023-04-08T07:43:27;100961.72;;;10.51;58.58
35331;BME280;21441;52.190;20.910;2023-04-08T07:45:59;100945.91;;;10.94;56.64
35331;BME280;21441;52.190;20.910;2023-04-08T07:48:27;100957.00;;;11.07;58.33
35331;BME280;21441;52.190;20.910;2023-04-08T07:50:54;100960.44;;;11.00;58.82
35331;BME280;21441;52.190;20.910;2023-04-08T07:53:22;100966.38;;;11.11;57.44
35331;BME280;21441;52.190;20.910;2023-04-08T07:55:51;100953.53;;;11.15;56.97
35331;BME280;21441;52.190;20.910;2023-04-08T07:58:19;100946.84;;;10.85;57.70
35331;BME280;21441;52.190;20.910;2023-04-08T08:00:46;100963.47;;;10.79;57.52
35331;BME280;21441;52.190;20.910;2023-04-08T08:03:13;100964.06;;;10.90;57.67
35331;BME280;21441;52.190;20.910;2023-04-08T08:05:41;100959.31;;;11.02;57.84
35331;BME280;21441;52.190;20.910;2023-04-08T08:08:08;100972.59;;;10.94;55.94
35331;BME280;21441;52.190;20.910;2023-04-08T08:10:36;100968.88;;;11.13;56.50
35331;BME280;21441;52.190;20.910;2023-04-08T08:13:03;100962.41;;;11.15;56.09
35331;BME280;21441;52.190;20.910;2023-04-08T08:15:32;100958.19;;;11.13;56.41
35331;BME280;21441;52.190;20.910;2023-04-08T08:17:59;100961.94;;;11.20;56.42
35331;BME280;21441;52.190;20.910;2023-04-08T08:20:26;100954.63;;;11.04;56.87
35331;BME280;21441;52.190;20.910;2023-04-08T08:22:54;100957.22;;;11.14;57.49
35331;BME280;21441;52.190;20.910;2023-04-08T08:25:21;100951.25;;;11.20;57.48
35331;BME280;21441;52.190;20.910;2023-04-08T08:27:48;100958.41;;;11.20;55.88
35331;BME280;21441;52.190;20.910;2023-04-08T08:30:15;100962.28;;;11.25;56.59
35331;BME280;21441;52.190;20.910;2023-04-08T08:32:46;100963.38;;;10.88;56.93
35331;BME280;21441;52.190;20.910;2023-04-08T08:35:14;100958.88;;;11.15;56.67
35331;BME280;21441;52.190;20.910;2023-04-08T08:37:41;100959.47;;;11.27;56.77
35331;BME280;21441;52.190;20.910;2023-04-08T08:40:09;100954.38;;;11.42;55.68
35331;BME280;21441;52.190;20.910;2023-04-08T08:42:38;100957.66;;;11.70;55.41
35331;BME280;21441;52.190;20.910;2023-04-08T08:45:05;100958.22;;;11.82;55.72
35331;BME280;21441;52.190;20.910;2023-04-08T08:47:33;100956.47;;;11.64;54.19
35331;BME280;21441;52.190;20.910;2023-04-08T08:50:01;100952.28;;;11.88;54.02
35331;BME280;21441;52.190;20.910;2023-04-08T08:52:28;100952.50;;;12.19;54.52
35331;BME280;21441;52.190;20.910;2023-04-08T08:54:57;100950.31;;;12.23;52.62
35331;BME280;21441;52.190;20.910;2023-04-08T08:57:24;100948.75;;;11.95;53.44
35331;BME280;21441;52.190;20.910;2023-04-08T08:59:51;100953.84;;;12.31;52.99
35331;BME280;21441;52.190;20.910;2023-04-08T09:02:23;100953.50;;;12.10;53.58
35331;BME280;21441;52.190;20.910;2023-04-08T09:04:56;100951.97;;;11.65;54.46
35331;BME280;21441;52.190;20.910;2023-04-08T09:07:25;100951.78;;;11.58;55.36
35331;BME280;21441;52.190;20.910;2023-04-08T09:09:53;100949.97;;;11.67;55.73
35331;BME280;21441;52.190;20.910;2023-04-08T09:12:21;100941.56;;;11.96;54.08
35331;BME280;21441;52.190;20.910;2023-04-08T09:14:48;100953.72;;;12.49;53.25
35331;BME280;21441;52.190;20.910;2023-04-08T09:17:30;100942.19;;;12.65;52.14
35331;BME280;21441;52.190;20.910;2023-04-08T09:20:05;100958.53;;;12.95;50.39
35331;BME280;21441;52.190;20.910;2023-04-08T09:22:54;100954.00;;;13.28;49.95
35331;BME280;21441;52.190;20.910;2023-04-08T09:25:25;100950.91;;;13.48;49.60
35331;BME280;21441;52.190;20.910;2023-04-08T09:27:52;100959.75;;;13.65;49.63
35331;BME280;21441;52.190;20.910;2023-04-08T09:30:22;100950.22;;;13.93;49.20
35331;BME280;21441;52.190;20.910;2023-04-08T09:32:50;100957.09;;;13.96;48.99
35331;BME280;21441;52.190;20.910;2023-04-08T09:35:18;100959.53;;;13.74;48.58
35331;BME280;21441;52.190;20.910;2023-04-08T09:37:47;100956.50;;;13.86;48.06
35331;BME280;21441;52.190;20.910;2023-04-08T09:40:14;100958.38;;;13.77;48.13
35331;BME280;21441;52.190;20.910;2023-04-08T09:42:44;100954.69;;;13.70;48.68
35331;BME280;21441;52.190;20.910;2023-04-08T09:45:14;100964.97;;;13.58;48.03
35331;BME280;21441;52.190;20.910;2023-04-08T09:47:55;100961.56;;;13.72;48.23
35331;BME280;21441;52.190;20.910;2023-04-08T09:50:26;100951.72;;;13.56;48.68
35331;BME280;21441;52.190;20.910;2023-04-08T09:53:00;100947.63;;;14.08;48.01
35331;BME280;21441;52.190;20.910;2023-04-08T09:55:29;100943.06;;;14.40;47.18
35331;BME280;21441;52.190;20.910;2023-04-08T09:58:02;100947.97;;;14.59;46.78
35331;BME280;21441;52.190;20.910;2023-04-08T10:00:36;100940.31;;;14.48;46.86
35331;BME280;21441;52.190;20.910;2023-04-08T10:03:09;100939.38;;;14.64;46.45
35331;BME280;21441;52.190;20.910;2023-04-08T10:05:37;100940.81;;;14.52;46.40
35331;BME280;21441;52.190;20.910;2023-04-08T10:08:08;100936.16;;;14.69;45.60
35331;BME280;21441;52.190;20.910;2023-04-08T10:10:38;100933.25;;;14.55;45.94
35331;BME280;21441;52.190;20.910;2023-04-08T10:13:07;100932.22;;;14.94;46.08
35331;BME280;21441;52.190;20.910;2023-04-08T10:15:34;100930.69;;;15.00;44.30
35331;BME280;21441;52.190;20.910;2023-04-08T10:18:29;100926.59;;;15.34;44.57
35331;BME280;21441;52.190;20.910;2023-04-08T10:20:56;100930.38;;;15.54;43.90
35331;BME280;21441;52.190;20.910;2023-04-08T10:23:54;100920.19;;;15.50;43.04
35331;BME280;21441;52.190;20.910;2023-04-08T10:26:30;100915.63;;;15.80;43.43
35331;BME280;21441;52.190;20.910;2023-04-08T10:32:07;100913.59;;;16.18;41.68
35331;BME280;21441;52.190;20.910;2023-04-08T10:34:50;100912.66;;;15.90;41.70
35331;BME280;21441;52.190;20.910;2023-04-08T10:37:18;100918.75;;;15.98;42.06
35331;BME280;21441;52.190;20.910;2023-04-08T10:39:49;100914.31;;;15.91;41.98
35331;BME280;21441;52.190;20.910;2023-04-08T10:42:17;100908.78;;;16.35;41.72
35331;BME280;21441;52.190;20.910;2023-04-08T10:44:45;100903.44;;;16.63;42.17
35331;BME280;21441;52.190;20.910;2023-04-08T10:47:12;100908.84;;;16.91;40.63
35331;BME280;21441;52.190;20.910;2023-04-08T10:49:39;100904.31;;;17.27;40.54
35331;BME280;21441;52.190;20.910;2023-04-08T10:52:08;100903.47;;;17.26;39.52
35331;BME280;21441;52.190;20.910;2023-04-08T10:54:36;100897.81;;;17.56;38.87
35331;BME280;21441;52.190;20.910;2023-04-08T10:57:05;100894.41;;;17.41;38.00
35331;BME280;21441;52.190;20.910;2023-04-08T10:59:32;100893.03;;;17.58;38.76
35331;BME280;21441;52.190;20.910;2023-04-08T11:01:59;100881.81;;;18.03;37.37
35331;BME280;21441;52.190;20.910;2023-04-08T11:04:27;100886.81;;;18.46;37.55
35331;BME280;21441;52.190;20.910;2023-04-08T11:06:54;100879.16;;;18.56;36.59
35331;BME280;21441;52.190;20.910;2023-04-08T11:09:21;100871.66;;;18.58;35.79
35331;BME280;21441;52.190;20.910;2023-04-08T11:11:48;100872.28;;;18.73;35.72
35331;BME280;21441;52.190;20.910;2023-04-08T11:14:17;100875.19;;;18.92;35.77
35331;BME280;21441;52.190;20.910;2023-04-08T11:16:46;100883.28;;;18.72;36.03
35331;BME280;21441;52.190;20.910;2023-04-08T11:19:13;100875.19;;;18.52;35.69
35331;BME280;21441;52.190;20.910;2023-04-08T11:21:41;100882.31;;;17.78;36.27
35331;BME280;21441;52.190;20.910;2023-04-08T11:24:09;100877.44;;;18.08;35.53
35331;BME280;21441;52.190;20.910;2023-04-08T11:26:38;100875.63;;;18.42;35.20
35331;BME280;21441;52.190;20.910;2023-04-08T11:29:05;100869.59;;;18.67;34.96
35331;BME280;21441;52.190;20.910;2023-04-08T11:31:39;100870.81;;;18.31;34.74
35331;BME280;21441;52.190;20.910;2023-04-08T11:34:07;100874.78;;;18.35;35.00
35331;BME280;21441;52.190;20.910;2023-04-08T11:36:34;100853.78;;;18.37;33.59
35331;BME280;21441;52.190;20.910;2023-04-08T11:39:06;100867.91;;;18.39;34.47
35331;BME280;21441;52.190;20.910;2023-04-08T11:41:36;100861.88;;;18.37;35.16
35331;BME280;21441;52.190;20.910;2023-04-08T11:44:05;100862.94;;;18.83;33.29
35331;BME280;21441;52.190;20.910;2023-04-08T11:46:33;100858.59;;;19.47;32.86
35331;BME280;21441;52.190;20.910;2023-04-08T11:49:04;100869.03;;;19.43;34.32
35331;BME280;21441;52.190;20.910;2023-04-08T11:51:32;100864.75;;;19.09;34.74
35331;BME280;21441;52.190;20.910;2023-04-08T11:54:03;100861.50;;;19.52;34.44
35331;BME280;21441;52.190;20.910;2023-04-08T11:56:43;100853.34;;;19.58;34.22
35331;BME280;21441;52.190;20.910;2023-04-08T11:59:10;100856.19;;;20.09;34.49
35331;BME280;21441;52.190;20.910;2023-04-08T12:01:37;100844.34;;;19.71;34.37
35331;BME280;21441;52.190;20.910;2023-04-08T12:04:06;100845.53;;;19.82;34.74
35331;BME280;21441;52.190;20.910;2023-04-08T12:06:34;100847.44;;;20.38;34.27
35331;BME280;21441;52.190;20.910;2023-04-08T12:09:02;100841.28;;;20.25;33.40
35331;BME280;21441;52.190;20.910;2023-04-08T12:11:29;100844.59;;;20.52;33.06
35331;BME280;21441;52.190;20.910;2023-04-08T12:13:56;100848.88;;;19.77;34.13
35331;BME280;21441;52.190;20.910;2023-04-08T12:16:23;100843.91;;;19.74;33.33
35331;BME280;21441;52.190;20.910;2023-04-08T12:18:50;100843.34;;;19.97;33.28
35331;BME280;21441;52.190;20.910;2023-04-08T12:21:19;100849.41;;;20.50;32.81
35331;BME280;21441;52.190;20.910;2023-04-08T12:23:46;100845.00;;;20.55;32.30
35331;BME280;21441;52.190;20.910;2023-04-08T12:26:13;100841.63;;;21.04;32.19
35331;BME280;21441;52.190;20.910;2023-04-08T12:28:40;100836.88;;;20.99;31.81
35331;BME280;21441;52.190;20.910;2023-04-08T12:31:07;100830.72;;;21.40;31.42
35331;BME280;21441;52.190;20.910;2023-04-08T12:33:34;100825.00;;;21.67;30.72
35331;BME280;21441;52.190;20.910;2023-04-08T12:36:01;100827.06;;;21.53;31.20
35331;BME280;21441;52.190;20.910;2023-04-08T12:38:30;100824.50;;;21.58;31.45
35331;BME280;21441;52.190;20.910;2023-04-08T12:40:58;100827.81;;;21.42;32.33
35331;BME280;21441;52.190;20.910;2023-04-08T12:43:25;100820.63;;;22.08;31.25
35331;BME280;21441;52.190;20.910;2023-04-08T12:45:52;100820.97;;;22.12;30.50
35331;BME280;21441;52.190;20.910;2023-04-08T12:48:19;100805.53;;;22.24;30.61
35331;BME280;21441;52.190;20.910;2023-04-08T12:50:46;100810.19;;;22.35;30.10